Time;durP1;ratioP1;P1;durP2;ratioP2;P2;SDS_P1;SDS_P2;PMS_P1;PMS_P2;Temp;Humidity;BMP_temperature;BMP_pressure;BME280_temperature;BME280_humidity;BME280_pressure;Samples;Min_cycle;Max_cycle;Signal;HPM_P1;HPM_P2
2021/08/25 00:01:32;;;;;;;0.70;0.70;;;14.40;99.90;;;;;;5051702;28;20280;-74
2021/08/25 00:03:57;;;;;;;1.40;1.08;;;14.40;99.90;;;;;;5051918;28;20208;-74
2021/08/25 00:06:23;;;;;;;0.77;0.77;;;14.30;99.90;;;;;;5051641;28;20205;-75
2021/08/25 00:08:49;;;;;;;0.50;0.50;;;14.30;99.90;;;;;;5052036;28;20285;-75
2021/08/25 00:11:15;;;;;;;0.52;0.52;;;14.30;99.90;;;;;;5050777;28;20201;-74
2021/08/25 00:13:41;;;;;;;0.60;0.60;;;14.30;99.90;;;;;;5052334;28;20310;-75
2021/08/25 00:16:07;;;;;;;0.40;0.40;;;14.30;99.90;;;;;;5052520;28;20213;-75
2021/08/25 00:18:32;;;;;;;4.47;1.30;;;14.30;99.90;;;;;;5016716;28;20791;-75
2021/08/25 00:20:59;;;;;;;0.55;0.55;;;14.30;99.90;;;;;;5052316;28;20212;-75
2021/08/25 00:23:25;;;;;;;0.65;0.57;;;14.30;99.90;;;;;;5052550;28;20259;-76
2021/08/25 00:25:53;;;;;;;1.15;0.88;;;14.30;99.90;;;;;;5051942;28;20209;-76
2021/08/25 00:28:20;;;;;;;0.60;0.60;;;14.20;99.90;;;;;;5034226;28;20281;-76
2021/08/25 00:30:46;;;;;;;0.63;0.63;;;14.20;99.90;;;;;;5051950;28;20201;-76
2021/08/25 00:33:11;;;;;;;0.50;0.50;;;14.20;99.90;;;;;;5050924;28;20212;-76
2021/08/25 00:35:37;;;;;;;0.40;0.40;;;14.10;99.90;;;;;;5051734;28;20216;-76
2021/08/25 00:38:03;;;;;;;0.70;0.70;;;14.10;99.90;;;;;;5051974;28;20197;-76
2021/08/25 00:40:29;;;;;;;0.52;0.52;;;14.10;99.90;;;;;;5050426;28;20206;-76
2021/08/25 00:42:55;;;;;;;0.52;0.52;;;14.10;99.90;;;;;;5051891;28;20547;-76
2021/08/25 00:45:20;;;;;;;0.40;0.40;;;14.00;99.90;;;;;;5051560;28;20559;-76
2021/08/25 00:47:48;;;;;;;0.40;0.40;;;14.00;99.90;;;;;;5050761;28;20240;-75
2021/08/25 00:50:16;;;;;;;0.50;0.50;;;13.90;99.90;;;;;;5050571;28;20193;-76
2021/08/25 00:52:43;;;;;;;0.82;0.82;;;13.90;99.90;;;;;;5050295;28;20241;-76
2021/08/25 00:55:13;;;;;;;1.00;0.95;;;13.80;99.90;;;;;;5050373;28;20613;-76
2021/08/25 00:57:39;;;;;;;0.63;0.63;;;13.70;99.90;;;;;;5050052;28;20208;-76
2021/08/25 01:00:07;;;;;;;0.50;0.50;;;13.70;99.90;;;;;;5033814;28;20680;-76
2021/08/25 01:02:52;;;;;;;0.80;0.80;;;13.70;99.90;;;;;;5051211;28;20255;-76
2021/08/25 01:05:18;;;;;;;0.50;0.50;;;13.80;99.90;;;;;;5036834;28;20291;-76
2021/08/25 01:07:44;;;;;;;0.75;0.73;;;13.80;99.90;;;;;;5031375;28;20569;-75
2021/08/25 01:10:31;;;;;;;0.57;0.57;;;13.80;99.90;;;;;;5030838;28;20252;-75
2021/08/25 01:13:01;;;;;;;0.60;0.60;;;13.80;99.90;;;;;;5034628;28;20232;-74
2021/08/25 01:15:32;;;;;;;0.50;0.50;;;13.90;99.90;;;;;;5033740;28;20206;-73
2021/08/25 01:18:04;;;;;;;0.57;0.57;;;13.90;99.90;;;;;;5015934;28;20734;-73
2021/08/25 01:20:31;;;;;;;8.50;0.98;;;13.80;99.90;;;;;;5033599;28;20210;-73
2021/08/25 01:22:58;;;;;;;3.35;0.88;;;13.80;99.90;;;;;;5035125;28;20569;-73
2021/08/25 01:25:26;;;;;;;0.50;0.50;;;13.80;99.90;;;;;;5033437;28;20203;-74
2021/08/25 01:27:58;;;;;;;0.60;0.60;;;13.80;99.90;;;;;;5016448;28;20199;-74
2021/08/25 01:30:27;;;;;;;0.77;0.77;;;13.70;99.90;;;;;;5033703;28;20583;-74
2021/08/25 01:32:53;;;;;;;1.20;0.93;;;13.70;99.90;;;;;;5032995;28;20238;-75
2021/08/25 01:35:19;;;;;;;0.50;0.50;;;13.60;99.90;;;;;;5034689;28;20218;-75
2021/08/25 01:37:45;;;;;;;0.63;0.63;;;13.70;99.90;;;;;;5028390;28;20489;-75
2021/08/25 01:40:11;;;;;;;1.60;0.93;;;13.60;99.90;;;;;;5034423;28;20237;-73
2021/08/25 01:42:37;;;;;;;0.60;0.60;;;13.60;99.90;;;;;;5032998;28;20202;-73
2021/08/25 01:45:05;;;;;;;2.85;1.33;;;13.60;99.90;;;;;;5034968;28;20217;-73
2021/08/25 01:47:30;;;;;;;0.50;0.50;;;13.60;99.90;;;;;;5014222;28;20607;-73
2021/08/25 01:49:56;;;;;;;0.70;0.70;;;13.60;99.90;;;;;;5033232;28;20206;-73
2021/08/25 01:52:22;;;;;;;0.63;0.63;;;13.60;99.90;;;;;;5032860;28;20551;-74
2021/08/25 01:54:50;;;;;;;1.75;1.45;;;13.60;99.90;;;;;;5004069;28;20331;-74
2021/08/25 01:57:16;;;;;;;3.60;2.13;;;13.60;99.90;;;;;;5030352;28;20680;-73
2021/08/25 01:59:42;;;;;;;0.82;0.82;;;13.70;99.90;;;;;;5034604;28;20210;-74
2021/08/25 02:02:08;;;;;;;1.20;1.10;;;13.70;99.90;;;;;;5013634;28;20696;-74
2021/08/25 02:04:34;;;;;;;0.60;0.60;;;13.70;99.90;;;;;;5040035;28;20225;-74
2021/08/25 02:07:00;;;;;;;0.40;0.40;;;13.70;99.90;;;;;;5033705;28;20266;-74
2021/08/25 02:09:27;;;;;;;2.30;0.77;;;13.70;99.90;;;;;;5053916;28;20197;-74
2021/08/25 02:11:53;;;;;;;24.65;1.75;;;13.70;99.90;;;;;;5030516;28;20225;-74
2021/08/25 02:14:19;;;;;;;0.50;0.50;;;13.70;99.90;;;;;;5040799;28;20205;-74
2021/08/25 02:16:45;;;;;;;0.50;0.50;;;13.70;99.90;;;;;;5054107;28;20201;-74
2021/08/25 02:19:10;;;;;;;0.50;0.50;;;13.70;99.90;;;;;;5054231;28;20292;-75
2021/08/25 02:21:36;;;;;;;2.25;1.55;;;13.70;99.90;;;;;;5053250;28;20208;-75
2021/08/25 02:24:02;;;;;;;0.65;0.65;;;13.80;99.90;;;;;;5033904;28;20209;-75
2021/08/25 02:26:28;;;;;;;0.50;0.50;;;13.80;99.90;;;;;;5036348;28;20598;-74
2021/08/25 02:28:54;;;;;;;1.08;0.65;;;13.80;99.90;;;;;;5034775;28;20255;-74
2021/08/25 02:31:21;;;;;;;0.80;0.80;;;13.80;99.90;;;;;;5053519;28;20602;-75
2021/08/25 02:33:47;;;;;;;0.75;0.70;;;13.80;99.90;;;;;;5053922;28;20224;-75
2021/08/25 02:36:13;;;;;;;8.20;2.28;;;13.80;99.90;;;;;;5052344;28;20205;-75
2021/08/25 02:38:40;;;;;;;0.70;0.70;;;13.80;99.90;;;;;;5053224;28;20304;-75
2021/08/25 02:41:09;;;;;;;0.95;0.73;;;13.80;99.90;;;;;;5053476;28;20284;-75
2021/08/25 02:43:35;;;;;;;0.50;0.50;;;13.80;99.90;;;;;;5052845;28;20213;-75
2021/08/25 02:46:02;;;;;;;0.63;0.63;;;13.80;99.90;;;;;;5052319;28;20213;-75
2021/08/25 02:48:27;;;;;;;0.60;0.60;;;13.80;99.90;;;;;;5053200;28;20202;-75
2021/08/25 02:50:53;;;;;;;3.17;0.85;;;13.80;99.90;;;;;;5053353;28;20289;-75
2021/08/25 02:53:19;;;;;;;0.68;0.65;;;13.80;99.90;;;;;;5053031;28;20212;-75
2021/08/25 02:55:46;;;;;;;0.70;0.70;;;13.70;99.90;;;;;;5051840;28;20209;-75
2021/08/25 02:58:12;;;;;;;0.50;0.50;;;13.70;99.90;;;;;;5053078;28;20201;-75
2021/08/25 03:00:38;;;;;;;11.93;2.67;;;13.70;99.90;;;;;;5051481;28;20619;-75
2021/08/25 03:03:04;;;;;;;0.63;0.63;;;13.70;99.90;;;;;;5050548;28;20360;-75
2021/08/25 03:05:29;;;;;;;0.50;0.50;;;13.60;99.90;;;;;;5032616;28;20240;-74
2021/08/25 03:07:55;;;;;;;1.00;0.80;;;13.60;99.90;;;;;;5052339;28;20566;-74
2021/08/25 03:10:21;;;;;;;0.60;0.60;;;13.60;99.90;;;;;;5033559;28;20202;-74
2021/08/25 03:12:46;;;;;;;5.97;1.98;;;13.50;99.90;;;;;;5051274;28;20202;-75
2021/08/25 03:15:12;;;;;;;6.72;0.85;;;13.50;99.90;;;;;;5050846;28;20600;-74
2021/08/25 03:17:38;;;;;;;0.50;0.50;;;13.50;99.90;;;;;;5052016;28;20212;-74
2021/08/25 03:20:09;;;;;;;0.40;0.40;;;13.40;99.90;;;;;;5052330;28;20205;-74
2021/08/25 03:22:36;;;;;;;0.50;0.50;;;13.50;99.90;;;;;;5051278;28;20248;-74
2021/08/25 03:25:03;;;;;;;0.55;0.55;;;13.40;99.90;;;;;;5032987;28;20205;-74
2021/08/25 03:27:28;;;;;;;2.15;1.48;;;13.30;99.90;;;;;;5032707;28;20246;-74
2021/08/25 03:29:54;;;;;;;0.45;0.45;;;13.30;99.90;;;;;;5051659;28;20571;-74
2021/08/25 03:32:20;;;;;;;0.82;0.82;;;13.30;99.90;;;;;;5050513;28;20205;-74
2021/08/25 03:34:45;;;;;;;0.55;0.55;;;13.20;99.90;;;;;;5028947;28;20606;-72
2021/08/25 03:37:12;;;;;;;0.60;0.60;;;13.10;99.90;;;;;;5049262;28;20664;-74
2021/08/25 03:39:37;;;;;;;0.52;0.52;;;13.10;99.90;;;;;;5032413;28;20296;-75
2021/08/25 03:42:03;;;;;;;0.55;0.55;;;13.00;99.90;;;;;;5031429;28;20787;-75
2021/08/25 03:44:29;;;;;;;0.82;0.82;;;12.90;99.90;;;;;;5051390;28;20197;-75
2021/08/25 03:46:55;;;;;;;0.50;0.50;;;12.80;99.90;;;;;;5050416;28;20569;-75
2021/08/25 03:49:21;;;;;;;1.13;1.00;;;12.70;99.90;;;;;;5032206;28;20292;-75
2021/08/25 03:51:47;;;;;;;0.65;0.65;;;12.60;99.90;;;;;;5051534;28;20251;-75
2021/08/25 03:54:12;;;;;;;0.75;0.75;;;12.60;99.90;;;;;;5032991;28;20232;-75
2021/08/25 03:56:38;;;;;;;0.60;0.60;;;12.50;99.90;;;;;;5031741;28;20296;-75
2021/08/25 03:59:04;;;;;;;1.30;1.02;;;12.40;99.90;;;;;;5049985;28;20209;-75
2021/08/25 04:01:30;;;;;;;1.20;1.10;;;12.40;99.90;;;;;;5051304;28;20198;-75
2021/08/25 04:03:55;;;;;;;16.63;0.80;;;12.40;99.90;;;;;;4992784;28;1156368;-75
2021/08/25 04:06:21;;;;;;;1.02;1.00;;;12.40;99.90;;;;;;5051390;28;20205;-75
2021/08/25 04:08:47;;;;;;;1.67;1.00;;;12.30;99.90;;;;;;5051746;28;20255;-75
2021/08/25 04:11:20;;;;;;;0.50;0.50;;;12.30;99.90;;;;;;5052004;28;20209;-75
2021/08/25 04:13:46;;;;;;;0.80;0.80;;;12.20;99.90;;;;;;5032909;28;20296;-75
2021/08/25 04:16:12;;;;;;;1.75;1.42;;;12.10;99.90;;;;;;5050614;28;20292;-75
2021/08/25 04:18:38;;;;;;;0.60;0.60;;;12.10;99.90;;;;;;5051839;28;20323;-76
2021/08/25 04:21:03;;;;;;;0.90;0.90;;;12.10;99.90;;;;;;5050464;28;20210;-75
2021/08/25 04:23:29;;;;;;;1.23;1.13;;;12.10;99.90;;;;;;5032547;28;20578;-74
2021/08/25 04:25:55;;;;;;;1.38;1.23;;;12.20;99.90;;;;;;5051936;28;20288;-75
2021/08/25 04:28:20;;;;;;;1.08;0.93;;;12.20;99.90;;;;;;5051667;28;20276;-75
2021/08/25 04:30:46;;;;;;;0.60;0.60;;;12.30;99.90;;;;;;5050539;28;20251;-74
2021/08/25 04:33:12;;;;;;;0.88;0.88;;;12.30;99.90;;;;;;5031513;28;20700;-75
2021/08/25 04:35:38;;;;;;;0.60;0.60;;;12.40;99.90;;;;;;5030389;28;20329;-74
2021/08/25 04:38:04;;;;;;;1.13;0.98;;;12.40;99.90;;;;;;5030668;28;20244;-75
2021/08/25 04:40:29;;;;;;;1.85;1.00;;;12.50;99.90;;;;;;5051172;28;20631;-75
2021/08/25 04:42:55;;;;;;;0.60;0.60;;;12.60;99.90;;;;;;5033871;28;20293;-74
2021/08/25 04:45:21;;;;;;;0.50;0.50;;;12.60;99.90;;;;;;5050698;28;20197;-74
2021/08/25 04:47:46;;;;;;;0.57;0.57;;;12.70;99.90;;;;;;5049512;28;20258;-74
2021/08/25 04:50:12;;;;;;;0.63;0.63;;;12.80;99.90;;;;;;5054326;28;20644;-74
2021/08/25 04:52:38;;;;;;;0.82;0.82;;;12.80;99.90;;;;;;5036405;28;20194;-74
2021/08/25 04:55:04;;;;;;;0.52;0.52;;;12.90;99.90;;;;;;5053520;28;20542;-75
2021/08/25 04:57:30;;;;;;;0.82;0.82;;;13.00;99.90;;;;;;5054571;28;20237;-74
2021/08/25 04:59:55;;;;;;;0.70;0.70;;;13.00;99.90;;;;;;5054359;28;20672;-75
2021/08/25 05:02:21;;;;;;;10.82;1.42;;;13.10;99.90;;;;;;5053958;28;20283;-75
2021/08/25 05:04:47;;;;;;;0.52;0.52;;;13.20;99.90;;;;;;5055559;28;20218;-74
2021/08/25 05:07:14;;;;;;;1.00;1.00;;;13.20;99.90;;;;;;5055378;28;20702;-75
2021/08/25 05:09:39;;;;;;;0.55;0.55;;;13.40;99.90;;;;;;5055014;28;20209;-75
2021/08/25 05:12:05;;;;;;;0.60;0.60;;;13.40;99.90;;;;;;5035924;28;20568;-75
2021/08/25 05:14:31;;;;;;;0.52;0.52;;;13.50;99.90;;;;;;5044401;28;20299;-74
2021/08/25 05:16:57;;;;;;;0.70;0.70;;;13.60;99.90;;;;;;5055092;28;20747;-75
2021/08/25 05:19:22;;;;;;;0.50;0.50;;;13.70;99.90;;;;;;5053356;28;20603;-75
2021/08/25 05:21:48;;;;;;;0.60;0.60;;;13.80;99.90;;;;;;5054675;28;20227;-74
2021/08/25 05:24:14;;;;;;;6.97;1.58;;;14.00;99.90;;;;;;5053325;28;20209;-74
2021/08/25 05:26:39;;;;;;;0.60;0.60;;;14.20;99.90;;;;;;5054602;28;20615;-74
2021/08/25 05:29:05;;;;;;;2.50;0.85;;;14.30;99.90;;;;;;5054768;28;20239;-74
2021/08/25 05:31:31;;;;;;;0.88;0.60;;;14.50;99.90;;;;;;5032231;28;20218;-74
2021/08/25 05:33:56;;;;;;;0.40;0.40;;;14.60;99.90;;;;;;5041444;28;20221;-73
2021/08/25 05:36:22;;;;;;;0.50;0.50;;;14.70;99.90;;;;;;5054319;28;20255;-74
2021/08/25 05:38:48;;;;;;;0.52;0.52;;;14.80;99.90;;;;;;5053277;28;20234;-74
2021/08/25 05:41:14;;;;;;;0.68;0.68;;;15.00;99.90;;;;;;5054459;28;20255;-74
2021/08/25 05:43:39;;;;;;;0.65;0.63;;;15.20;99.90;;;;;;5054360;28;20303;-74
2021/08/25 05:46:05;;;;;;;0.80;0.80;;;15.30;99.90;;;;;;5054505;28;20648;-74
2021/08/25 05:48:31;;;;;;;0.63;0.63;;;15.50;99.90;;;;;;5054608;28;20701;-73
2021/08/25 05:50:56;;;;;;;0.50;0.50;;;15.60;99.90;;;;;;5052903;28;20197;-74
2021/08/25 05:53:22;;;;;;;0.73;0.73;;;15.70;99.90;;;;;;5035015;28;20719;-73
2021/08/25 05:55:48;;;;;;;1.48;0.88;;;15.80;99.90;;;;;;5054314;28;20205;-73
2021/08/25 05:58:13;;;;;;;3.42;1.20;;;16.00;99.90;;;;;;5033950;28;20276;-73
2021/08/25 06:00:39;;;;;;;1.80;1.15;;;16.10;99.90;;;;;;5052315;28;20217;-73
2021/08/25 06:03:05;;;;;;;0.52;0.52;;;16.20;99.90;;;;;;5052309;28;20248;-73
2021/08/25 06:05:30;;;;;;;0.63;0.63;;;16.20;99.90;;;;;;5050182;28;20239;-72
2021/08/25 06:07:56;;;;;;;1.17;1.08;;;16.20;99.90;;;;;;5031797;28;20233;-72
2021/08/25 06:10:22;;;;;;;0.40;0.40;;;16.30;99.90;;;;;;5024087;28;20198;-73
2021/08/25 06:12:48;;;;;;;0.50;0.50;;;16.40;99.90;;;;;;5034125;28;20206;-72
2021/08/25 06:15:14;;;;;;;1.02;1.02;;;16.50;99.90;;;;;;5034061;28;20212;-72
2021/08/25 06:17:40;;;;;;;1.02;0.90;;;16.60;99.90;;;;;;5015987;28;20210;-73
2021/08/25 06:20:06;;;;;;;0.70;0.70;;;16.60;99.90;;;;;;5034105;28;20206;-72
2021/08/25 06:22:32;;;;;;;0.85;0.85;;;16.70;99.90;;;;;;5025286;28;20252;-73
2021/08/25 06:24:58;;;;;;;0.50;0.50;;;16.90;99.90;;;;;;5016544;28;20590;-73
2021/08/25 06:27:24;;;;;;;0.40;0.40;;;17.00;99.90;;;;;;5033850;28;20206;-72
2021/08/25 06:29:50;;;;;;;0.30;0.30;;;17.10;99.90;;;;;;5025206;28;20944;-73
2021/08/25 06:32:16;;;;;;;0.68;0.65;;;17.30;99.90;;;;;;5016004;28;20228;-74
2021/08/25 06:34:42;;;;;;;0.50;0.50;;;17.40;99.90;;;;;;5033646;28;20237;-74
2021/08/25 06:37:08;;;;;;;0.50;0.50;;;17.40;99.90;;;;;;5015741;28;20238;-74
2021/08/25 06:39:34;;;;;;;0.73;0.73;;;17.40;99.90;;;;;;5015654;28;20288;-73
2021/08/25 06:41:59;;;;;;;0.73;0.73;;;17.30;99.90;;;;;;5015393;28;20206;-75
2021/08/25 06:44:25;;;;;;;0.60;0.60;;;17.20;99.90;;;;;;5015442;28;20217;-73
2021/08/25 06:46:51;;;;;;;0.40;0.40;;;17.10;99.90;;;;;;5015579;28;20206;-76
2021/08/25 06:49:16;;;;;;;0.47;0.47;;;17.10;99.90;;;;;;5033338;28;20610;-74
2021/08/25 06:51:43;;;;;;;0.50;0.50;;;17.20;99.90;;;;;;5033069;28;20206;-75
2021/08/25 06:54:08;;;;;;;0.40;0.40;;;17.30;99.90;;;;;;5015593;28;20209;-75
2021/08/25 06:56:34;;;;;;;0.40;0.40;;;17.40;99.90;;;;;;5015183;28;20320;-76
2021/08/25 06:59:00;;;;;;;0.47;0.47;;;17.60;99.90;;;;;;5014273;28;20654;-74
2021/08/25 07:01:25;;;;;;;0.45;0.45;;;17.80;99.90;;;;;;5032488;28;20733;-74
2021/08/25 07:03:51;;;;;;;1.02;0.70;;;17.90;99.90;;;;;;5034304;28;20313;-74
2021/08/25 07:06:19;;;;;;;0.28;0.28;;;18.00;99.90;;;;;;5052944;28;20208;-74
2021/08/25 07:08:45;;;;;;;0.50;0.50;;;18.10;99.90;;;;;;5046133;28;20608;-74
2021/08/25 07:11:11;;;;;;;0.30;0.30;;;18.20;99.90;;;;;;5048726;28;20684;-75
2021/08/25 07:13:36;;;;;;;0.70;0.40;;;18.30;99.90;;;;;;5051408;28;20205;-74
2021/08/25 07:16:02;;;;;;;0.45;0.45;;;18.40;99.90;;;;;;5051590;28;20760;-75
2021/08/25 07:18:28;;;;;;;0.40;0.40;;;18.30;99.90;;;;;;5034553;28;20562;-74
2021/08/25 07:20:54;;;;;;;0.30;0.30;;;18.40;99.90;;;;;;5052090;28;20288;-74
2021/08/25 07:23:19;;;;;;;0.40;0.40;;;18.40;99.90;;;;;;5052084;28;20568;-75
2021/08/25 07:25:45;;;;;;;0.30;0.30;;;18.40;99.90;;;;;;5033675;28;20268;-74
2021/08/25 07:28:11;;;;;;;0.30;0.30;;;18.30;99.90;;;;;;5052626;28;20241;-74
2021/08/25 07:30:37;;;;;;;0.30;0.30;;;18.10;99.90;;;;;;5052157;28;20541;-75
2021/08/25 07:33:03;;;;;;;0.30;0.30;;;17.90;99.90;;;;;;5051071;28;20682;-74
2021/08/25 07:35:30;;;;;;;0.30;0.30;;;17.70;99.90;;;;;;5052316;28;20292;-74
2021/08/25 07:37:58;;;;;;;0.68;0.68;;;17.60;99.90;;;;;;5052360;28;20284;-74
2021/08/25 07:40:24;;;;;;;0.40;0.40;;;17.50;99.90;;;;;;5052071;28;20660;-74
2021/08/25 07:42:50;;;;;;;1.48;1.30;;;17.50;99.90;;;;;;5033041;28;20213;-75
2021/08/25 07:45:16;;;;;;;0.30;0.30;;;17.80;99.90;;;;;;5050803;28;20280;-74
2021/08/25 07:47:44;;;;;;;0.60;0.60;;;18.20;99.90;;;;;;5050707;28;20621;-74
2021/08/25 07:50:09;;;;;;;0.40;0.40;;;18.40;99.90;;;;;;5052192;28;20655;-77
2021/08/25 07:52:35;;;;;;;0.30;0.30;;;18.60;99.90;;;;;;5050687;28;20263;-75
2021/08/25 07:55:01;;;;;;;0.22;0.22;;;18.80;99.90;;;;;;5051234;28;20676;-73
2021/08/25 07:57:26;;;;;;;0.30;0.30;;;18.90;99.90;;;;;;5051808;28;20216;-75
2021/08/25 07:59:52;;;;;;;0.40;0.40;;;19.10;99.90;;;;;;5031910;28;20211;-75
2021/08/25 08:02:18;;;;;;;0.40;0.40;;;19.30;99.90;;;;;;5032731;28;20296;-75
2021/08/25 08:04:44;;;;;;;0.30;0.30;;;19.40;99.90;;;;;;5048396;28;20649;-76
2021/08/25 08:07:09;;;;;;;0.30;0.30;;;19.50;99.90;;;;;;5031722;28;20198;-74
2021/08/25 08:09:35;;;;;;;0.40;0.40;;;19.60;99.90;;;;;;5052625;28;20194;-75
2021/08/25 08:12:00;;;;;;;0.20;0.20;;;19.70;99.90;;;;;;5051864;28;20201;-76
2021/08/25 08:14:26;;;;;;;0.40;0.40;;;19.90;99.90;;;;;;5051050;28;20573;-76
2021/08/25 08:16:57;;;;;;;0.20;0.20;;;20.10;99.90;;;;;;5052115;28;20593;-74
2021/08/25 08:19:29;;;;;;;0.20;0.20;;;20.40;99.90;;;;;;5032526;28;20247;-74
2021/08/25 08:21:55;;;;;;;0.20;0.20;;;20.80;99.90;;;;;;5037305;28;20206;-74
2021/08/25 08:24:21;;;;;;;0.20;0.20;;;20.70;99.90;;;;;;5054622;28;20275;-74
2021/08/25 08:26:47;;;;;;;0.28;0.28;;;20.20;99.90;;;;;;5056283;28;20213;-74
2021/08/25 08:29:13;;;;;;;0.20;0.20;;;19.90;99.90;;;;;;5044864;28;20206;-74
2021/08/25 08:31:39;;;;;;;0.25;0.25;;;19.90;99.90;;;;;;5031475;28;20686;-74
2021/08/25 08:34:05;;;;;;;0.30;0.30;;;20.00;99.90;;;;;;5038072;28;20292;-73
2021/08/25 08:36:31;;;;;;;0.22;0.22;;;20.00;99.90;;;;;;5035907;28;20240;-74
2021/08/25 08:38:56;;;;;;;0.30;0.30;;;19.90;99.90;;;;;;5055694;28;20539;-74
2021/08/25 08:41:22;;;;;;;0.30;0.30;;;19.80;99.90;;;;;;5054330;28;20311;-75
2021/08/25 08:43:50;;;;;;;0.30;0.30;;;20.00;99.90;;;;;;5054335;28;20305;-74
2021/08/25 08:46:17;;;;;;;0.20;0.20;;;20.10;99.90;;;;;;5055712;28;20197;-74
2021/08/25 08:48:43;;;;;;;0.35;0.35;;;20.20;99.90;;;;;;5053993;28;20201;-74
2021/08/25 08:51:11;;;;;;;0.30;0.30;;;20.40;99.90;;;;;;5055450;28;20311;-74
2021/08/25 08:53:37;;;;;;;0.30;0.30;;;20.70;99.90;;;;;;5054635;28;20227;-84
2021/08/25 08:56:03;;;;;;;0.20;0.20;;;20.60;99.90;;;;;;5055056;28;20202;-84
2021/08/25 08:58:29;;;;;;;0.20;0.20;;;20.80;99.90;;;;;;5054767;28;20209;-76
2021/08/25 09:00:55;;;;;;;0.35;0.35;;;20.90;99.90;;;;;;5052855;28;20567;-73
2021/08/25 09:03:24;;;;;;;0.20;0.20;;;21.40;99.90;;;;;;5054839;28;20264;-75
2021/08/25 09:05:56;;;;;;;0.20;0.20;;;21.60;99.50;;;;;;5054808;28;20233;-73
2021/08/25 09:08:24;;;;;;;0.30;0.30;;;21.50;98.60;;;;;;5054161;28;20201;-79
2021/08/25 09:11:00;;;;;;;0.20;0.20;;;21.60;99.90;;;;;;5035860;28;20248;-79
2021/08/25 09:13:48;;;;;;;0.20;0.20;;;21.80;98.40;;;;;;5054789;28;20205;-77
2021/08/25 09:16:35;;;;;;;0.20;0.20;;;21.80;98.90;;;;;;5036112;28;20205;-78
2021/08/25 09:19:13;;;;;;;0.20;0.20;;;22.00;98.50;;;;;;5053778;28;20211;-80
2021/08/25 09:21:43;;;;;;;0.40;0.40;;;21.70;97.90;;;;;;5019964;28;20279;-78
2021/08/25 09:24:10;;;;;;;0.17;0.17;;;21.20;99.30;;;;;;5053784;28;20205;-77
2021/08/25 09:26:37;;;;;;;0.30;0.30;;;20.80;99.00;;;;;;5054666;28;20196;-80
2021/08/25 09:29:16;;;;;;;0.20;0.20;;;20.40;98.90;;;;;;5054266;28;20192;-79
2021/08/25 09:31:47;;;;;;;0.30;0.30;;;20.10;98.70;;;;;;5021973;28;20198;-78
2021/08/25 09:34:32;;;;;;;0.20;0.20;;;19.90;99.00;;;;;;5036543;28;20201;-79
2021/08/25 09:37:24;;;;;;;0.20;0.20;;;19.90;99.60;;;;;;5053295;28;20566;-78
2021/08/25 09:39:56;;;;;;;0.30;0.30;;;20.70;98.50;;;;;;5036037;28;20209;-78
2021/08/25 09:42:23;;;;;;;0.38;0.38;;;21.20;99.10;;;;;;5036579;28;20280;-78
2021/08/25 09:45:06;;;;;;;0.30;0.30;;;21.20;97.00;;;;;;5035661;28;20289;-79
2021/08/25 09:47:53;;;;;;;0.20;0.20;;;20.90;98.50;;;;;;5039150;28;20209;-78
2021/08/25 09:50:21;;;;;;;0.30;0.30;;;20.60;96.50;;;;;;5052969;28;20205;-79
2021/08/25 09:52:47;;;;;;;0.20;0.20;;;20.70;97.80;;;;;;5054362;28;20259;-78
2021/08/25 09:55:14;;;;;;;0.30;0.30;;;20.90;97.80;;;;;;5053107;28;20205;-79
2021/08/25 09:57:41;;;;;;;0.20;0.20;;;20.90;97.60;;;;;;5054436;28;20209;-79
2021/08/25 10:00:10;;;;;;;0.20;0.20;;;20.90;97.70;;;;;;5053067;28;20281;-77
2021/08/25 10:02:36;;;;;;;0.20;0.20;;;21.20;96.80;;;;;;5036047;28;20202;-79
2021/08/25 10:05:03;;;;;;;0.20;0.20;;;21.60;96.70;;;;;;5036599;28;20225;-77
2021/08/25 10:07:28;;;;;;;0.20;0.20;;;22.10;97.30;;;;;;5036500;28;20267;-80
2021/08/25 10:09:55;;;;;;;0.20;0.20;;;21.90;95.00;;;;;;5054497;28;20202;-74
2021/08/25 10:12:21;;;;;;;0.20;0.20;;;21.80;97.40;;;;;;5034713;28;20193;-78
2021/08/25 10:14:47;;;;;;;0.30;0.30;;;21.50;95.50;;;;;;5053396;28;20398;-75
2021/08/25 10:17:39;;;;;;;0.22;0.22;;;20.90;94.60;;;;;;5052728;28;20251;-75
2021/08/25 10:20:23;;;;;;;0.20;0.20;;;20.40;96.10;;;;;;5053341;28;20202;-76
2021/08/25 10:22:50;;;;;;;0.20;0.20;;;20.10;97.30;;;;;;5053181;28;20218;-76
2021/08/25 10:25:16;;;;;;;0.20;0.20;;;20.30;97.60;;;;;;5054061;28;20255;-76
2021/08/25 10:28:00;;;;;;;0.20;0.20;;;20.30;97.60;;;;;;5033446;28;20255;-76
2021/08/25 10:30:26;;;;;;;0.20;0.20;;;20.60;97.50;;;;;;5053346;28;20240;-76
2021/08/25 10:32:52;;;;;;;0.20;0.20;;;20.50;95.70;;;;;;5034536;28;20201;-74
2021/08/25 10:35:27;;;;;;;0.20;0.20;;;20.10;96.10;;;;;;5053505;28;20566;-75
2021/08/25 10:38:15;;;;;;;0.20;0.20;;;20.30;97.60;;;;;;5053771;28;20608;-75
2021/08/25 10:40:41;;;;;;;0.40;0.40;;;20.60;96.70;;;;;;5052056;28;20680;-74
2021/08/25 10:43:07;;;;;;;0.20;0.20;;;21.00;97.40;;;;;;5051276;28;20213;-75
2021/08/25 10:45:41;;;;;;;0.20;0.20;;;21.40;96.40;;;;;;5053199;28;20306;-75
2021/08/25 10:48:10;;;;;;;0.20;0.20;;;21.80;96.00;;;;;;5053369;28;20603;-75
2021/08/25 10:50:55;;;;;;;0.20;0.20;;;21.30;94.70;;;;;;5053066;28;20563;-75
2021/08/25 10:53:39;;;;;;;0.20;0.20;;;20.50;96.00;;;;;;5051767;28;20210;-75
2021/08/25 10:56:07;;;;;;;0.20;0.20;;;19.70;97.30;;;;;;5033920;28;20221;-74
2021/08/25 10:58:48;;;;;;;0.30;0.30;;;19.10;99.70;;;;;;5053269;28;20211;-75
2021/08/25 11:01:29;;;;;;;0.30;0.30;;;19.40;99.90;;;;;;5035031;28;20292;-75
2021/08/25 11:04:15;;;;;;;0.20;0.20;;;19.60;99.60;;;;;;5052382;28;20208;-75
2021/08/25 11:06:42;;;;;;;0.30;0.30;;;20.00;99.70;;;;;;5014935;28;20585;-76
2021/08/25 11:09:31;;;;;;;0.22;0.22;;;20.80;97.40;;;;;;5032407;28;20202;-75
2021/08/25 11:12:14;;;;;;;0.30;0.30;;;21.00;96.90;;;;;;4998665;28;20292;-76
2021/08/25 11:14:47;;;;;;;0.30;0.30;;;21.10;97.80;;;;;;4999546;28;20209;-75
2021/08/25 11:17:24;;;;;;;0.20;0.20;;;21.10;95.90;;;;;;5030309;28;20206;-75
2021/08/25 11:19:52;;;;;;;0.20;0.20;;;21.10;96.00;;;;;;5014948;28;20202;-76
2021/08/25 11:22:18;;;;;;;0.20;0.20;;;21.40;96.30;;;;;;5024373;28;20723;-75
2021/08/25 11:24:52;;;;;;;0.22;0.22;;;20.90;95.80;;;;;;5014566;28;20206;-76
2021/08/25 11:27:25;;;;;;;0.20;0.20;;;20.90;96.00;;;;;;5015718;28;20206;-75
2021/08/25 11:30:12;;;;;;;0.20;0.20;;;20.90;96.10;;;;;;5023119;28;20263;-76
2021/08/25 11:32:49;;;;;;;0.20;0.20;;;21.10;96.30;;;;;;5016062;28;20227;-75
2021/08/25 11:35:39;;;;;;;0.20;0.20;;;21.30;96.90;;;;;;5032037;28;20226;-76
2021/08/25 11:38:08;;;;;;;0.20;0.20;;;21.10;95.60;;;;;;5026265;28;20206;-76
2021/08/25 11:40:38;;;;;;;0.20;0.20;;;21.50;96.70;;;;;;5031720;28;20197;-76
2021/08/25 11:43:10;;;;;;;0.30;0.30;;;21.70;96.90;;;;;;5030586;28;20205;-78
2021/08/25 11:45:37;;;;;;;0.20;0.20;;;21.30;96.90;;;;;;5032099;28;20710;-77
2021/08/25 11:48:03;;;;;;;0.30;0.30;;;20.60;96.70;;;;;;5032975;28;20273;-80
2021/08/25 11:50:32;;;;;;;0.20;0.20;;;20.30;97.70;;;;;;5015824;28;20264;-78
2021/08/25 11:52:59;;;;;;;0.30;0.30;;;20.20;98.30;;;;;;5014863;28;20742;-77
2021/08/25 11:55:25;;;;;;;1.95;0.75;;;20.20;98.40;;;;;;5032485;28;20202;-80
2021/08/25 11:57:54;;;;;;;0.25;0.25;;;20.70;97.50;;;;;;5032690;28;20296;-78
2021/08/25 12:00:37;;;;;;;0.20;0.20;;;21.40;97.60;;;;;;5032094;28;20231;-79
2021/08/25 12:03:04;;;;;;;0.20;0.20;;;21.50;96.10;;;;;;5031527;28;20263;-79
2021/08/25 12:05:36;;;;;;;0.30;0.30;;;21.30;96.60;;;;;;5029382;28;20233;-78
2021/08/25 12:08:05;;;;;;;0.20;0.20;;;20.90;96.70;;;;;;5052619;28;20201;-76
2021/08/25 12:10:32;;;;;;;0.28;0.28;;;20.10;97.30;;;;;;5035075;28;20206;-77
2021/08/25 12:12:58;;;;;;;0.20;0.20;;;19.60;97.90;;;;;;5051644;28;20280;-77
2021/08/25 12:15:45;;;;;;;0.40;0.40;;;19.20;98.80;;;;;;5051595;28;20232;-73
2021/08/25 12:18:12;;;;;;;0.30;0.30;;;19.10;99.40;;;;;;5032390;28;20205;-73
2021/08/25 12:20:39;;;;;;;0.30;0.30;;;19.00;99.90;;;;;;5034009;28;20216;-77
2021/08/25 12:23:07;;;;;;;0.40;0.40;;;18.50;99.90;;;;;;5034453;28;20223;-74
2021/08/25 12:25:44;;;;;;;0.30;0.30;;;18.40;99.90;;;;;;5051700;28;20687;-73
2021/08/25 12:28:16;;;;;;;0.30;0.30;;;18.20;99.90;;;;;;5034042;28;20262;-76
2021/08/25 12:30:44;;;;;;;0.30;0.30;;;18.00;99.90;;;;;;5033899;28;20723;-75
2021/08/25 12:33:11;;;;;;;0.40;0.40;;;17.90;99.90;;;;;;5034259;28;20209;-75
2021/08/25 12:35:38;;;;;;;0.40;0.40;;;17.70;99.90;;;;;;5052666;28;20209;-75
2021/08/25 12:38:06;;;;;;;0.30;0.30;;;17.90;99.90;;;;;;5034117;28;20220;-74
2021/08/25 12:40:33;;;;;;;0.38;0.38;;;18.50;99.90;;;;;;5051388;28;20209;-73
2021/08/25 12:42:59;;;;;;;0.30;0.30;;;18.90;99.90;;;;;;5051846;28;20241;-76
2021/08/25 12:45:27;;;;;;;0.30;0.30;;;19.40;99.90;;;;;;5052127;28;20536;-76
2021/08/25 12:47:54;;;;;;;0.50;0.50;;;19.50;99.90;;;;;;5051690;28;20201;-75
2021/08/25 12:50:24;;;;;;;0.30;0.30;;;19.80;99.90;;;;;;5051710;28;20248;-76